createdAt,value
2023-03-05T09:43:49.908Z,100.00
2023-03-05T09:46:04.909Z,100.00
2023-03-05T09:48:24.582Z,100.00
2023-03-05T09:50:50.614Z,100.00
2023-03-05T09:52:57.919Z,100.00
2023-03-05T09:55:01.249Z,100.00
2023-03-05T09:57:05.584Z,100.00
2023-03-05T09:59:20.520Z,100.00
2023-03-05T10:01:30.646Z,99.56
2023-03-05T10:03:50.093Z,98.40
2023-03-05T10:06:02.117Z,98.41
2023-03-05T10:08:06.067Z,98.77
2023-03-05T10:10:22.526Z,98.57
2023-03-05T10:12:39.085Z,98.00
2023-03-05T10:14:42.247Z,98.92
2023-03-05T10:16:57.326Z,97.73
2023-03-05T10:19:08.497Z,97.10
2023-03-05T10:21:31.251Z,96.72
2023-03-05T10:23:42.903Z,95.70
2023-03-05T10:26:17.319Z,93.29
2023-03-05T10:28:34.820Z,93.86
2023-03-05T10:30:59.351Z,94.10
2023-03-05T10:33:27.581Z,93.35
2023-03-05T10:35:54.979Z,94.09
2023-03-05T10:38:00.852Z,91.95
2023-03-05T10:40:22.506Z,90.49
2023-03-05T10:42:37.888Z,88.08
2023-03-05T10:44:52.899Z,86.04
2023-03-05T10:46:58.244Z,83.89
2023-03-05T10:49:12.560Z,85.08
2023-03-05T10:51:29.096Z,85.77
2023-03-05T10:53:46.411Z,86.80
2023-03-05T10:55:50.724Z,86.16
2023-03-05T10:57:53.995Z,85.32
2023-03-05T11:00:05.707Z,85.39
2023-03-05T11:02:10.324Z,85.37
2023-03-05T11:04:29.831Z,84.44
2023-03-05T11:06:46.973Z,83.01
2023-03-05T11:08:50.622Z,83.29
2023-03-05T11:11:18.414Z,84.06
2023-03-05T11:13:27.950Z,84.20
2023-03-05T11:15:31.083Z,84.56
2023-03-05T11:17:37.530Z,84.04
2023-03-05T11:19:40.014Z,84.37
2023-03-05T11:21:43.858Z,84.48
2023-03-05T11:24:08.862Z,82.86
2023-03-05T11:26:14.240Z,80.63
2023-03-05T11:28:32.071Z,79.04
2023-03-05T11:30:37.493Z,78.93
2023-03-05T11:32:40.188Z,79.73
2023-03-05T11:34:43.908Z,80.03
2023-03-05T11:36:58.379Z,79.33
2023-03-05T11:39:16.624Z,78.93
2023-03-05T11:41:25.474Z,78.37
2023-03-05T11:43:34.588Z,78.77
2023-03-05T11:45:37.206Z,79.17
2023-03-05T11:47:44.856Z,78.63
2023-03-05T11:49:53.077Z,79.20
2023-03-05T11:52:02.338Z,79.15
2023-03-05T11:54:12.896Z,77.53
2023-03-05T11:56:27.700Z,77.20
2023-03-05T11:58:41.910Z,73.32
2023-03-05T12:00:46.578Z,69.09
2023-03-05T12:02:54.990Z,67.57
2023-03-05T12:04:59.756Z,65.60
2023-03-05T12:07:03.540Z,67.21
2023-03-05T12:09:51.885Z,67.21
2023-03-05T12:12:10.610Z,68.10
2023-03-05T12:14:23.459Z,68.39
2023-03-05T12:16:31.788Z,70.22
2023-03-05T12:18:39.312Z,72.01
2023-03-05T12:21:01.096Z,72.71
2023-03-05T12:23:04.705Z,72.92
2023-03-05T12:25:34.446Z,72.39
2023-03-05T12:27:39.361Z,71.57
2023-03-05T12:29:47.108Z,71.76
2023-03-05T12:31:50.002Z,71.27
2023-03-05T12:33:52.975Z,70.17
2023-03-05T12:36:33.054Z,68.05
2023-03-05T12:38:35.535Z,66.28
2023-03-05T12:40:38.322Z,64.09
2023-03-05T12:43:08.766Z,61.22
2023-03-05T12:45:19.706Z,58.90
2023-03-05T12:47:23.995Z,55.69
2023-03-05T12:49:28.731Z,56.68
2023-03-05T12:51:41.260Z,58.50
2023-03-05T12:53:44.138Z,59.87
2023-03-05T12:55:59.285Z,59.63
2023-03-05T12:58:26.173Z,60.26
2023-03-05T13:00:44.687Z,59.95
2023-03-05T13:02:56.286Z,56.42
2023-03-05T13:05:15.228Z,54.74
2023-03-05T13:07:19.505Z,56.73
2023-03-05T13:09:28.929Z,58.48
2023-03-05T13:11:35.379Z,59.91
2023-03-05T13:13:44.605Z,60.97
2023-03-05T13:15:49.322Z,60.88
2023-03-05T13:18:07.589Z,62.29
2023-03-05T13:20:28.613Z,63.63
2023-03-05T13:22:32.683Z,63.58
2023-03-05T13:24:36.012Z,64.05
2023-03-05T13:26:45.956Z,64.18
2023-03-05T13:29:14.946Z,64.31
2023-03-05T13:31:21.757Z,64.26
2023-03-05T13:33:32.064Z,64.22
2023-03-05T13:35:44.609Z,65.19
2023-03-05T13:37:50.820Z,65.46
2023-03-05T13:40:07.706Z,65.82
2023-03-05T13:42:20.752Z,66.10
2023-03-05T13:44:24.385Z,66.53
2023-03-05T13:46:39.444Z,67.24
2023-03-05T13:48:42.658Z,67.93
2023-03-05T13:50:46.405Z,67.89
2023-03-05T13:52:50.647Z,68.42
2023-03-05T13:54:53.688Z,68.47
2023-03-05T13:57:02.989Z,69.61
2023-03-05T13:59:17.925Z,70.32
2023-03-05T14:01:28.863Z,71.49
2023-03-05T14:03:34.923Z,72.59
2023-03-05T14:05:44.558Z,73.36
2023-03-05T14:07:51.678Z,73.76
2023-03-05T14:09:56.780Z,74.95
2023-03-05T14:12:08.345Z,75.95
2023-03-05T14:14:19.277Z,76.58
2023-03-05T14:16:29.533Z,77.27
2023-03-05T14:18:33.148Z,77.68
2023-03-05T14:20:36.727Z,78.11
2023-03-05T14:22:45.346Z,78.22
2023-03-05T14:24:54.176Z,78.72
2023-03-05T14:27:21.856Z,78.68
2023-03-05T14:29:27.725Z,78.78
2023-03-05T14:31:35.832Z,79.60
2023-03-05T14:33:41.850Z,79.21
2023-03-05T14:35:53.220Z,79.79
2023-03-05T14:37:58.686Z,79.55
2023-03-05T14:40:07.185Z,79.40
2023-03-05T14:42:38.773Z,79.02
2023-03-05T14:44:44.009Z,79.75
2023-03-05T14:46:50.992Z,80.04
2023-03-05T14:48:54.913Z,78.98
2023-03-05T14:51:01.777Z,78.38
2023-03-05T14:53:26.974Z,78.63
2023-03-05T14:55:33.077Z,79.26
2023-03-05T14:57:36.861Z,79.29
2023-03-05T14:59:40.337Z,79.26
2023-03-05T15:01:44.756Z,79.42
2023-03-05T15:03:48.288Z,79.89
2023-03-05T15:05:59.604Z,80.48
2023-03-05T15:08:04.626Z,81.63
2023-03-05T15:10:09.278Z,81.26
2023-03-05T15:12:15.364Z,81.11
2023-03-05T15:14:20.604Z,80.85
2023-03-05T15:16:24.497Z,81.20
2023-03-05T15:18:28.481Z,81.34
2023-03-05T15:20:45.305Z,81.96
2023-03-05T15:22:48.972Z,82.28
2023-03-05T15:24:52.764Z,83.16
2023-03-05T15:26:57.244Z,83.02
2023-03-05T15:29:01.215Z,83.85
2023-03-05T15:31:07.117Z,83.36
2023-03-05T15:33:14.588Z,83.00
2023-03-05T15:35:18.487Z,83.43
2023-03-05T15:37:21.764Z,84.09
2023-03-05T15:39:26.020Z,83.41
2023-03-05T15:41:29.917Z,82.23
2023-03-05T15:43:33.553Z,82.33
2023-03-05T15:45:37.248Z,83.10
2023-03-05T15:47:40.453Z,82.97
2023-03-05T15:49:44.205Z,83.05
2023-03-05T15:51:49.519Z,82.76
2023-03-05T15:53:54.904Z,82.22
2023-03-05T15:55:58.680Z,83.02
2023-03-05T16:00:08.200Z,83.25
2023-03-05T16:02:14.160Z,82.97
2023-03-05T16:04:18.125Z,82.82
2023-03-05T16:06:26.089Z,83.13
2023-03-05T16:08:30.057Z,83.97
2023-03-05T16:10:37.318Z,84.23
2023-03-05T16:12:45.152Z,84.20
2023-03-05T16:14:51.648Z,85.67
2023-03-05T16:16:58.990Z,86.91
2023-03-05T16:19:06.139Z,88.24
2023-03-05T16:21:10.577Z,89.12
2023-03-05T16:23:15.045Z,89.11
2023-03-05T16:25:19.515Z,89.61
2023-03-05T16:27:26.213Z,90.20
2023-03-05T16:29:33.073Z,89.70
2023-03-05T16:31:39.034Z,89.91
2023-03-05T16:33:43.789Z,90.68
2023-03-05T16:35:48.019Z,87.15
2023-03-05T16:37:52.296Z,85.40
2023-03-05T16:40:00.553Z,85.48
2023-03-05T16:42:05.149Z,85.19
2023-03-05T16:44:09.194Z,84.77
2023-03-05T16:46:14.960Z,83.73
2023-03-05T16:48:20.333Z,83.24
2023-03-05T16:50:25.458Z,81.40
2023-03-05T16:52:30.749Z,80.15
2023-03-05T16:56:41.204Z,79.34
2023-03-05T16:58:46.240Z,79.54
2023-03-05T17:00:50.216Z,79.24
2023-03-05T17:02:54.021Z,77.46
2023-03-05T17:04:59.985Z,76.82
2023-03-05T17:07:06.072Z,75.22
2023-03-05T17:09:09.892Z,74.10
2023-03-05T17:11:15.544Z,74.03
2023-03-05T17:13:20.174Z,73.61
2023-03-05T17:15:24.538Z,73.04
2023-03-05T17:17:28.710Z,73.02
2023-03-05T17:19:32.542Z,72.23
2023-03-05T17:21:36.573Z,72.30
2023-03-05T17:23:43.626Z,72.34
2023-03-05T17:25:47.589Z,72.45
2023-03-05T17:27:52.377Z,72.21
2023-03-05T17:29:56.632Z,72.39
2023-03-05T17:31:59.702Z,72.34
2023-03-05T17:34:03.831Z,72.44
2023-03-05T17:36:14.141Z,72.76
2023-03-05T17:38:18.980Z,73.02
2023-03-05T17:40:24.915Z,73.45
2023-03-05T17:42:28.773Z,74.08
2023-03-05T17:44:32.336Z,73.87
2023-03-05T17:46:38.678Z,74.10
2023-03-05T17:48:42.359Z,74.45
2023-03-05T17:50:48.580Z,75.16
2023-03-05T17:52:55.851Z,75.51
2023-03-05T17:54:59.687Z,75.88
2023-03-05T17:57:04.634Z,76.07
2023-03-05T17:59:08.026Z,76.22
2023-03-05T18:01:12.599Z,76.00
2023-03-05T18:03:16.486Z,76.29
2023-03-05T18:05:25.337Z,76.35
2023-03-05T18:07:29.197Z,76.94
2023-03-05T18:09:33.253Z,76.74
2023-03-05T18:11:39.609Z,76.73
2023-03-05T18:13:43.768Z,76.82
2023-03-05T18:15:49.865Z,76.52
2023-03-05T18:17:53.925Z,76.33
2023-03-05T18:19:57.927Z,76.21
2023-03-05T18:22:11.362Z,76.32
2023-03-05T18:24:15.709Z,76.88
2023-03-05T18:26:19.828Z,76.50
2023-03-05T18:28:27.934Z,76.29
2023-03-05T18:30:35.223Z,76.96
2023-03-05T18:32:38.842Z,76.96
2023-03-05T18:34:43.330Z,77.00
2023-03-05T18:36:46.964Z,77.05
2023-03-05T18:38:51.130Z,76.87
2023-03-05T18:40:57.241Z,77.05
2023-03-05T18:43:02.245Z,76.98
2023-03-05T18:45:06.989Z,76.57
2023-03-05T18:47:12.046Z,76.47
2023-03-05T18:49:17.459Z,76.77
2023-03-05T18:51:22.601Z,76.43
2023-03-05T18:53:27.613Z,76.53
2023-03-05T18:55:32.777Z,76.39
2023-03-05T18:57:40.886Z,76.72
2023-03-05T18:59:45.205Z,76.50
2023-03-05T19:01:50.584Z,76.39
2023-03-05T19:03:54.213Z,76.50
2023-03-05T19:05:59.084Z,76.50
2023-03-05T19:08:03.213Z,76.93
2023-03-05T19:10:11.822Z,77.02
2023-03-05T19:12:15.976Z,76.75
2023-03-05T19:14:20.075Z,77.10
2023-03-05T19:16:28.530Z,76.55
2023-03-05T19:18:43.213Z,76.46
2023-03-05T19:20:56.278Z,76.81
2023-03-05T19:22:59.892Z,76.92
2023-03-05T19:25:07.363Z,76.86
2023-03-05T19:27:11.612Z,76.52
2023-03-05T19:29:15.992Z,76.27
2023-03-05T19:31:20.228Z,76.85
2023-03-05T19:33:25.036Z,76.91
2023-03-05T19:35:28.420Z,76.15
2023-03-05T19:37:33.221Z,76.12
2023-03-05T19:39:36.160Z,76.08
2023-03-05T19:41:39.784Z,76.49
2023-03-05T19:43:44.389Z,76.68
2023-03-05T19:45:48.135Z,76.65
2023-03-05T19:47:51.992Z,76.93
2023-03-05T19:49:59.033Z,77.38
2023-03-05T19:52:03.384Z,77.36
2023-03-05T19:54:07.013Z,77.66
2023-03-05T19:56:11.433Z,77.76
2023-03-05T19:58:15.604Z,78.03
2023-03-05T20:00:22.454Z,77.75
2023-03-05T20:02:25.994Z,77.71
2023-03-05T20:04:29.205Z,77.39
2023-03-05T20:06:37.152Z,76.96
2023-03-05T20:08:41.666Z,76.52
2023-03-05T20:10:50.617Z,77.10
2023-03-05T20:12:55.250Z,76.66
2023-03-05T20:15:02.066Z,76.29
2023-03-05T20:17:05.581Z,76.09
2023-03-05T20:19:10.781Z,75.18
2023-03-05T20:21:22.149Z,75.10
2023-03-05T20:23:25.965Z,75.24
2023-03-05T20:25:31.356Z,75.29
2023-03-05T20:27:35.050Z,75.38
2023-03-05T20:29:39.043Z,75.20
2023-03-05T20:31:44.938Z,74.66
2023-03-05T20:33:50.171Z,74.59
2023-03-05T20:35:54.946Z,74.69
2023-03-05T20:38:20.870Z,74.87
2023-03-05T20:40:25.227Z,75.15
2023-03-05T20:42:29.324Z,75.19
2023-03-05T20:44:32.706Z,75.46
2023-03-05T20:46:43.503Z,75.54
2023-03-05T20:48:48.804Z,75.94
2023-03-05T20:50:52.536Z,76.54
2023-03-05T20:52:58.097Z,77.50
2023-03-05T20:55:04.211Z,78.85
2023-03-05T20:57:08.570Z,79.72
2023-03-05T20:59:15.468Z,80.36
2023-03-05T21:01:21.595Z,81.34
2023-03-05T21:03:25.662Z,81.77
2023-03-05T21:05:31.046Z,82.08
2023-03-05T21:07:34.815Z,82.12
2023-03-05T21:09:38.693Z,82.94
2023-03-05T21:11:43.123Z,84.02
2023-03-05T21:13:46.639Z,84.86
2023-03-05T21:15:50.179Z,85.47
2023-03-05T21:17:55.883Z,85.91
2023-03-05T21:19:59.230Z,85.60
2023-03-05T21:22:02.470Z,85.18
2023-03-05T21:24:06.625Z,85.89
2023-03-05T21:26:10.206Z,87.30
2023-03-05T21:28:17.682Z,87.47
2023-03-05T21:30:22.575Z,88.31
2023-03-05T21:32:25.872Z,88.74
2023-03-05T21:34:29.681Z,88.95
2023-03-05T21:36:33.222Z,88.94
2023-03-05T21:38:41.370Z,89.08
2023-03-05T21:40:45.646Z,89.76
2023-03-05T21:42:48.598Z,89.70
2023-03-05T21:44:51.339Z,90.08
2023-03-05T21:46:54.717Z,89.66
2023-03-05T21:48:57.719Z,90.19
2023-03-05T21:51:00.340Z,90.10
2023-03-05T21:53:03.468Z,90.43
2023-03-05T21:55:07.528Z,89.69
2023-03-05T21:57:11.652Z,90.25
2023-03-05T21:59:14.407Z,90.76
2023-03-05T22:01:19.376Z,91.16
2023-03-05T22:03:22.084Z,91.43
2023-03-05T22:05:24.355Z,91.41
2023-03-05T22:07:27.877Z,91.14
2023-03-05T22:09:30.440Z,90.88
2023-03-05T22:11:32.892Z,91.44
2023-03-05T22:13:36.520Z,91.27
2023-03-05T22:15:49.329Z,91.83
2023-03-05T22:17:51.636Z,92.68
2023-03-05T22:19:53.921Z,92.68
2023-03-05T22:21:57.653Z,93.09
2023-03-05T22:24:00.027Z,93.52
2023-03-05T22:26:07.066Z,93.47
2023-03-05T22:28:12.328Z,92.88
2023-03-05T22:30:14.734Z,92.60
2023-03-05T22:32:17.022Z,92.48
2023-03-05T22:34:19.675Z,92.14
2023-03-05T22:36:22.323Z,93.03
2023-03-05T22:38:25.458Z,93.55
2023-03-05T22:40:28.309Z,94.41
2023-03-05T22:42:30.612Z,94.20
2023-03-05T22:44:32.906Z,95.04
2023-03-05T22:46:35.540Z,95.63
2023-03-05T22:48:37.937Z,95.90
2023-03-05T22:50:41.895Z,96.63
2023-03-05T22:52:44.729Z,97.19
2023-03-05T22:54:47.309Z,97.46
2023-03-05T22:56:49.580Z,97.69
2023-03-05T22:58:52.161Z,98.37
2023-03-05T23:00:54.483Z,99.59
2023-03-05T23:02:56.919Z,99.71
2023-03-05T23:05:00.545Z,100.00
2023-03-05T23:07:02.940Z,100.00
